Time;durP1;ratioP1;P1;durP2;ratioP2;P2;SDS_P1;SDS_P2;PMS_P1;PMS_P2;Temp;Humidity;BMP_temperature;BMP_pressure;BME280_temperature;BME280_humidity;BME280_pressure;Samples;Min_cycle;Max_cycle;Signal;HPM_P1;HPM_P2
2023/06/14 00:00:17;;;;;;;8.45;6.32;;;;;;;;;;5026869;28;20053;-69
2023/06/14 00:02:42;;;;;;;10.63;6.30;;;;;;;;;;5026765;28;20029;-69
2023/06/14 00:05:08;;;;;;;11.52;6.38;;;;;;;;;;5026934;28;20064;-69
2023/06/14 00:07:38;;;;;;;8.85;6.20;;;;;;;;;;5026453;28;20402;-69
2023/06/14 00:10:04;;;;;;;8.95;6.78;;;;;;;;;;5027130;28;20025;-69
2023/06/14 00:12:31;;;;;;;11.25;6.82;;;;;;;;;;5026357;28;20569;-70
2023/06/14 00:14:56;;;;;;;8.75;6.70;;;;;;;;;;5026444;28;20029;-69
2023/06/14 00:17:22;;;;;;;9.75;6.65;;;;;;;;;;5026574;28;20461;-70
2023/06/14 00:19:47;;;;;;;7.85;6.38;;;;;;;;;;5026518;28;20280;-69
2023/06/14 00:22:13;;;;;;;10.82;7.20;;;;;;;;;;5026625;28;20021;-69
2023/06/14 00:24:38;;;;;;;12.18;6.25;;;;;;;;;;5025981;28;20132;-70
2023/06/14 00:27:04;;;;;;;10.88;6.20;;;;;;;;;;5014894;28;20124;-70
2023/06/14 00:29:29;;;;;;;9.60;6.78;;;;;;;;;;5026070;28;20037;-69
2023/06/14 00:31:55;;;;;;;10.25;6.43;;;;;;;;;;5026116;28;20030;-70
2023/06/14 00:34:20;;;;;;;8.18;6.72;;;;;;;;;;5026706;28;20025;-69
2023/06/14 00:36:45;;;;;;;11.88;7.05;;;;;;;;;;5026971;28;20028;-69
2023/06/14 00:39:11;;;;;;;8.23;6.32;;;;;;;;;;5025482;28;20581;-70
2023/06/14 00:41:37;;;;;;;8.60;6.68;;;;;;;;;;5026281;28;20057;-69
2023/06/14 00:44:03;;;;;;;9.57;6.38;;;;;;;;;;5026361;28;20037;-69
2023/06/14 00:46:28;;;;;;;10.90;6.60;;;;;;;;;;5023977;28;20028;-69
2023/06/14 00:48:55;;;;;;;8.90;6.68;;;;;;;;;;5026865;28;20075;-69
2023/06/14 00:51:21;;;;;;;9.10;6.13;;;;;;;;;;5025642;28;20087;-69
2023/06/14 00:53:46;;;;;;;10.38;6.80;;;;;;;;;;5025836;28;20457;-69
2023/06/14 00:56:14;;;;;;;11.73;6.70;;;;;;;;;;5025785;28;20381;-70
2023/06/14 00:58:41;;;;;;;9.20;6.35;;;;;;;;;;5024242;28;20033;-69
2023/06/14 01:01:06;;;;;;;9.02;6.43;;;;;;;;;;5025953;28;20060;-69
2023/06/14 01:03:32;;;;;;;8.95;6.70;;;;;;;;;;5025380;28;20153;-69
2023/06/14 01:06:42;;;;;;;8.98;6.85;;;;;;;;;;5025078;28;20048;-69
2023/06/14 01:09:07;;;;;;;9.07;6.57;;;;;;;;;;5023265;28;20099;-69
2023/06/14 01:11:41;;;;;;;8.75;6.20;;;;;;;;;;5025899;28;20029;-69
2023/06/14 01:14:07;;;;;;;13.82;7.03;;;;;;;;;;5025876;28;20036;-69
2023/06/14 01:16:35;;;;;;;10.05;6.90;;;;;;;;;;5025670;28;20035;-69
2023/06/14 01:19:02;;;;;;;10.82;6.65;;;;;;;;;;5030199;28;20018;-69
2023/06/14 01:21:28;;;;;;;9.65;6.85;;;;;;;;;;5033661;28;20540;-69
2023/06/14 01:23:54;;;;;;;9.23;6.70;;;;;;;;;;5025092;28;20033;-69
2023/06/14 01:26:23;;;;;;;8.77;6.45;;;;;;;;;;5025065;28;20070;-69
2023/06/14 01:28:50;;;;;;;9.95;6.82;;;;;;;;;;5024918;28;20061;-69
2023/06/14 01:31:21;;;;;;;10.48;7.03;;;;;;;;;;5024884;28;20225;-70
2023/06/14 01:33:48;;;;;;;14.25;7.10;;;;;;;;;;5025333;28;20075;-69
2023/06/14 01:36:14;;;;;;;8.85;6.65;;;;;;;;;;5025109;28;20072;-70
2023/06/14 01:38:43;;;;;;;10.05;6.40;;;;;;;;;;5024296;28;20083;-70
2023/06/14 01:41:09;;;;;;;9.77;6.72;;;;;;;;;;5012829;28;20033;-69
2023/06/14 01:43:35;;;;;;;10.10;6.55;;;;;;;;;;5015446;28;20028;-69
2023/06/14 01:46:02;;;;;;;8.35;6.35;;;;;;;;;;5015580;28;20025;-69
2023/06/14 01:48:28;;;;;;;9.88;6.72;;;;;;;;;;5022110;28;20038;-69
2023/06/14 01:50:53;;;;;;;11.85;6.25;;;;;;;;;;5023495;28;20044;-69
2023/06/14 01:53:19;;;;;;;10.48;6.65;;;;;;;;;;5023636;28;20038;-69
2023/06/14 01:55:48;;;;;;;9.85;6.57;;;;;;;;;;5023345;28;20442;-69
2023/06/14 01:58:13;;;;;;;11.65;7.03;;;;;;;;;;5025159;28;20026;-69
2023/06/14 02:00:40;;;;;;;14.32;7.40;;;;;;;;;;5024397;28;20388;-69
2023/06/14 02:03:05;;;;;;;12.52;7.20;;;;;;;;;;5022505;28;20057;-69
2023/06/14 02:05:30;;;;;;;11.70;7.10;;;;;;;;;;5024325;28;20056;-70
2023/06/14 02:07:56;;;;;;;13.18;7.80;;;;;;;;;;5023443;28;20025;-69
2023/06/14 02:10:21;;;;;;;12.35;7.32;;;;;;;;;;5024425;28;20018;-69
2023/06/14 02:12:47;;;;;;;9.60;7.35;;;;;;;;;;5019692;28;20601;-69
2023/06/14 02:15:16;;;;;;;8.85;7.15;;;;;;;;;;5024053;28;20125;-70
2023/06/14 02:17:46;;;;;;;13.02;7.43;;;;;;;;;;5023599;28;20470;-69
2023/06/14 02:20:12;;;;;;;14.15;7.65;;;;;;;;;;5024115;28;20038;-69
2023/06/14 02:22:38;;;;;;;10.30;7.15;;;;;;;;;;5024300;28;20047;-69
2023/06/14 02:25:03;;;;;;;10.32;7.40;;;;;;;;;;5023168;28;20419;-69
2023/06/14 02:27:29;;;;;;;12.30;6.90;;;;;;;;;;5024801;28;20562;-70
2023/06/14 02:29:54;;;;;;;11.05;6.95;;;;;;;;;;5023294;28;20668;-69
2023/06/14 02:32:20;;;;;;;10.23;7.03;;;;;;;;;;5004028;28;20034;-69
2023/06/14 02:34:49;;;;;;;10.90;7.32;;;;;;;;;;5022828;28;20026;-69
2023/06/14 02:37:15;;;;;;;11.82;7.22;;;;;;;;;;5024819;28;20646;-69
2023/06/14 02:39:40;;;;;;;10.38;7.22;;;;;;;;;;5024811;28;20045;-69
2023/06/14 02:42:06;;;;;;;10.63;7.07;;;;;;;;;;5023581;28;20037;-69
2023/06/14 02:44:32;;;;;;;12.00;7.50;;;;;;;;;;5026824;28;20071;-69
2023/06/14 02:46:58;;;;;;;16.20;6.93;;;;;;;;;;5030745;28;20044;-69
2023/06/14 02:49:24;;;;;;;9.77;7.00;;;;;;;;;;5027942;28;20577;-69
2023/06/14 02:51:49;;;;;;;9.35;6.82;;;;;;;;;;5025612;28;20025;-69
2023/06/14 02:54:15;;;;;;;11.13;7.40;;;;;;;;;;5024751;28;20040;-69
2023/06/14 02:56:40;;;;;;;14.98;7.50;;;;;;;;;;5024168;28;20064;-69
2023/06/14 02:59:07;;;;;;;13.00;7.90;;;;;;;;;;5023378;28;20044;-69
2023/06/14 03:01:35;;;;;;;12.98;7.32;;;;;;;;;;5024490;28;20029;-69
2023/06/14 03:04:03;;;;;;;10.63;7.43;;;;;;;;;;5023692;28;20431;-69
2023/06/14 03:06:30;;;;;;;12.25;7.22;;;;;;;;;;5023669;28;20073;-69
2023/06/14 03:08:59;;;;;;;10.68;7.07;;;;;;;;;;5022505;28;20445;-69
2023/06/14 03:11:25;;;;;;;11.27;7.43;;;;;;;;;;5023915;28;20033;-69
2023/06/14 03:13:51;;;;;;;11.32;7.78;;;;;;;;;;5023974;28;20410;-69
2023/06/14 03:16:19;;;;;;;12.65;7.90;;;;;;;;;;5023569;28;20037;-70
2023/06/14 03:18:45;;;;;;;11.40;7.75;;;;;;;;;;5023895;28;20053;-69
2023/06/14 03:21:11;;;;;;;10.30;7.40;;;;;;;;;;5023765;28;20033;-69
2023/06/14 03:23:36;;;;;;;10.00;7.78;;;;;;;;;;5023393;28;20033;-69
2023/06/14 03:26:02;;;;;;;11.50;7.68;;;;;;;;;;5019289;28;20064;-69
2023/06/14 03:28:27;;;;;;;9.63;7.40;;;;;;;;;;5023005;28;20037;-69
2023/06/14 03:30:52;;;;;;;15.40;7.97;;;;;;;;;;5026283;28;20048;-69
2023/06/14 03:33:18;;;;;;;15.73;8.48;;;;;;;;;;5027727;28;20048;-69
2023/06/14 03:35:43;;;;;;;11.13;7.63;;;;;;;;;;5027000;28;20406;-69
2023/06/14 03:38:09;;;;;;;11.18;7.72;;;;;;;;;;5027157;28;20153;-69
2023/06/14 03:40:34;;;;;;;13.90;8.15;;;;;;;;;;5025980;28;20064;-69
2023/06/14 03:43:00;;;;;;;10.80;7.85;;;;;;;;;;5027755;28;20033;-69
2023/06/14 03:45:25;;;;;;;13.93;8.23;;;;;;;;;;5025016;28;20065;-69
2023/06/14 03:47:51;;;;;;;10.85;7.30;;;;;;;;;;5021955;28;20099;-69
2023/06/14 03:50:18;;;;;;;12.05;8.40;;;;;;;;;;5021388;28;20550;-70
2023/06/14 03:52:43;;;;;;;15.48;8.15;;;;;;;;;;5026916;28;20485;-69
2023/06/14 03:55:09;;;;;;;12.82;8.32;;;;;;;;;;5027587;28;20709;-69
2023/06/14 03:57:35;;;;;;;12.98;8.00;;;;;;;;;;5026637;28;20037;-69
2023/06/14 04:00:00;;;;;;;13.30;8.40;;;;;;;;;;5027448;28;20470;-69
2023/06/14 04:02:28;;;;;;;22.30;8.85;;;;;;;;;;5025077;28;20474;-69
2023/06/14 04:04:54;;;;;;;12.75;8.60;;;;;;;;;;5026534;28;20473;-69
2023/06/14 04:07:20;;;;;;;12.98;7.38;;;;;;;;;;5027462;28;20029;-69
2023/06/14 04:09:46;;;;;;;15.05;8.07;;;;;;;;;;5028114;28;20020;-69
2023/06/14 04:12:12;;;;;;;12.80;7.72;;;;;;;;;;5028645;28;20070;-69
2023/06/14 04:14:38;;;;;;;11.98;7.93;;;;;;;;;;5033793;28;20622;-69
2023/06/14 04:17:03;;;;;;;12.23;8.00;;;;;;;;;;5028957;28;20033;-69
2023/06/14 04:19:29;;;;;;;11.80;7.30;;;;;;;;;;5026815;28;20439;-69
2023/06/14 04:21:54;;;;;;;10.98;7.43;;;;;;;;;;5026600;28;20024;-69
2023/06/14 04:24:20;;;;;;;12.18;7.65;;;;;;;;;;5025808;28;20044;-69
2023/06/14 04:26:47;;;;;;;11.90;7.63;;;;;;;;;;5025224;28;20038;-69
2023/06/14 04:29:14;;;;;;;14.88;8.00;;;;;;;;;;5026293;28;20430;-69
2023/06/14 04:31:49;;;;;;;9.32;7.22;;;;;;;;;;5026322;28;20029;-69
2023/06/14 04:34:17;;;;;;;11.98;7.90;;;;;;;;;;5027145;28;20035;-70
2023/06/14 04:36:49;;;;;;;13.68;7.68;;;;;;;;;;5024437;28;20044;-69
2023/06/14 04:39:17;;;;;;;11.90;7.78;;;;;;;;;;5025887;28;20025;-69
2023/06/14 04:41:44;;;;;;;16.27;8.50;;;;;;;;;;5025784;28;20041;-69
2023/06/14 04:44:09;;;;;;;12.35;8.00;;;;;;;;;;5026158;28;20029;-69
2023/06/14 04:46:44;;;;;;;14.68;8.40;;;;;;;;;;5024737;28;20028;-69
2023/06/14 04:49:10;;;;;;;12.02;8.25;;;;;;;;;;5026284;28;20246;-69
2023/06/14 04:51:36;;;;;;;13.63;8.50;;;;;;;;;;5026021;28;20082;-69
2023/06/14 04:54:02;;;;;;;18.98;7.78;;;;;;;;;;5025976;28;20534;-69
2023/06/14 04:56:29;;;;;;;12.13;7.75;;;;;;;;;;5026112;28;20041;-69
2023/06/14 04:58:56;;;;;;;15.45;8.48;;;;;;;;;;5025314;28;20164;-69
2023/06/14 05:01:23;;;;;;;14.27;8.70;;;;;;;;;;5025474;28;20025;-69
2023/06/14 05:03:49;;;;;;;16.13;9.43;;;;;;;;;;5013023;28;20132;-69
2023/06/14 05:06:15;;;;;;;15.13;9.68;;;;;;;;;;5025370;28;20620;-69
2023/06/14 05:08:41;;;;;;;13.55;9.13;;;;;;;;;;5024691;28;20594;-70
2023/06/14 05:11:06;;;;;;;14.43;9.73;;;;;;;;;;5017447;28;20514;-69
2023/06/14 05:13:32;;;;;;;13.32;9.35;;;;;;;;;;5016095;28;20155;-69
2023/06/14 05:15:58;;;;;;;17.08;9.45;;;;;;;;;;5020715;28;20017;-69
2023/06/14 05:18:25;;;;;;;17.98;8.98;;;;;;;;;;5018571;28;20041;-69
2023/06/14 05:20:50;;;;;;;14.82;9.13;;;;;;;;;;5022945;28;20598;-69
2023/06/14 05:23:16;;;;;;;17.52;9.13;;;;;;;;;;5024737;28;20630;-69
2023/06/14 05:25:43;;;;;;;12.60;9.43;;;;;;;;;;5022313;28;20764;-69
2023/06/14 05:28:08;;;;;;;14.90;9.10;;;;;;;;;;5025616;28;20053;-69
2023/06/14 05:30:34;;;;;;;18.05;9.27;;;;;;;;;;5023165;28;20083;-69
2023/06/14 05:32:59;;;;;;;13.65;9.02;;;;;;;;;;5024590;28;20533;-70
2023/06/14 05:35:26;;;;;;;20.42;10.43;;;;;;;;;;5025085;28;20461;-69
2023/06/14 05:37:52;;;;;;;17.88;9.10;;;;;;;;;;5026018;28;20037;-69
2023/06/14 05:40:17;;;;;;;16.95;9.20;;;;;;;;;;5029055;28;20618;-69
2023/06/14 05:42:42;;;;;;;15.27;9.32;;;;;;;;;;5034072;28;20021;-69
2023/06/14 05:45:08;;;;;;;12.65;9.02;;;;;;;;;;5022335;28;20407;-69
2023/06/14 05:47:33;;;;;;;17.50;8.98;;;;;;;;;;5022781;28;20037;-69
2023/06/14 05:49:59;;;;;;;12.77;8.90;;;;;;;;;;5019224;28;20029;-69
2023/06/14 05:52:25;;;;;;;14.52;9.35;;;;;;;;;;5023952;28;20037;-70
2023/06/14 05:54:50;;;;;;;12.57;8.75;;;;;;;;;;5022418;28;20026;-69
2023/06/14 05:57:16;;;;;;;13.25;9.05;;;;;;;;;;5016185;28;20049;-69
2023/06/14 05:59:41;;;;;;;13.90;8.75;;;;;;;;;;5025054;28;20644;-69
2023/06/14 06:02:06;;;;;;;13.82;9.32;;;;;;;;;;5024048;28;20040;-70
2023/06/14 06:04:32;;;;;;;13.68;9.32;;;;;;;;;;5027721;28;20058;-69
2023/06/14 06:06:57;;;;;;;15.45;9.45;;;;;;;;;;5016255;28;20045;-69
2023/06/14 06:09:23;;;;;;;13.02;8.75;;;;;;;;;;5024447;28;20034;-70
2023/06/14 06:11:48;;;;;;;11.77;9.10;;;;;;;;;;5016969;28;20065;-70
2023/06/14 06:14:13;;;;;;;19.13;8.98;;;;;;;;;;5014654;28;20044;-70
2023/06/14 06:16:39;;;;;;;12.43;9.45;;;;;;;;;;5017355;28;20102;-69
2023/06/14 06:19:04;;;;;;;10.68;8.13;;;;;;;;;;5014649;28;20318;-69
2023/06/14 06:21:30;;;;;;;12.88;8.73;;;;;;;;;;5016815;28;20053;-69
2023/06/14 06:23:55;;;;;;;17.63;10.02;;;;;;;;;;5008909;28;20461;-70
2023/06/14 06:26:22;;;;;;;14.93;9.50;;;;;;;;;;5011886;28;20057;-70
2023/06/14 06:28:48;;;;;;;15.52;9.30;;;;;;;;;;5007473;28;20562;-70
2023/06/14 06:31:13;;;;;;;17.17;8.88;;;;;;;;;;5022368;28;20072;-70
2023/06/14 06:33:39;;;;;;;14.13;9.25;;;;;;;;;;5020805;28;20511;-70
2023/06/14 06:36:05;;;;;;;15.70;10.18;;;;;;;;;;5018849;28;20026;-70
2023/06/14 06:38:30;;;;;;;12.85;9.20;;;;;;;;;;5023327;28;20160;-70
2023/06/14 06:40:56;;;;;;;13.40;9.32;;;;;;;;;;5022040;28;20403;-70
2023/06/14 06:43:22;;;;;;;12.68;8.80;;;;;;;;;;5018320;28;20554;-70
2023/06/14 06:45:47;;;;;;;12.70;8.75;;;;;;;;;;5013364;28;20046;-70
2023/06/14 06:48:13;;;;;;;14.32;9.40;;;;;;;;;;5015085;28;20038;-70
2023/06/14 06:50:38;;;;;;;15.88;9.23;;;;;;;;;;5013510;28;20043;-70
2023/06/14 06:53:05;;;;;;;11.80;8.43;;;;;;;;;;5023824;28;20494;-70
2023/06/14 06:55:30;;;;;;;13.88;9.13;;;;;;;;;;5018103;28;20029;-70
2023/06/14 06:57:56;;;;;;;18.58;9.25;;;;;;;;;;5016848;28;20034;-70
2023/06/14 07:00:21;;;;;;;13.13;8.23;;;;;;;;;;5022632;28;20038;-70
2023/06/14 07:02:47;;;;;;;11.85;8.38;;;;;;;;;;5023471;28;20084;-70
2023/06/14 07:05:13;;;;;;;15.15;8.63;;;;;;;;;;5027262;28;20041;-70
2023/06/14 07:07:38;;;;;;;11.38;8.25;;;;;;;;;;5032556;28;20033;-70
2023/06/14 07:10:04;;;;;;;13.93;8.68;;;;;;;;;;5036345;28;20060;-70
2023/06/14 07:12:35;;;;;;;11.30;8.13;;;;;;;;;;5022068;28;20036;-70
2023/06/14 07:15:01;;;;;;;10.48;8.10;;;;;;;;;;5016206;28;20055;-70
2023/06/14 07:17:26;;;;;;;12.45;8.40;;;;;;;;;;5021883;28;20449;-70
2023/06/14 07:19:53;;;;;;;12.40;8.90;;;;;;;;;;5020236;28;20037;-70
2023/06/14 07:22:18;;;;;;;14.20;8.68;;;;;;;;;;5024949;28;20017;-70
2023/06/14 07:24:44;;;;;;;13.45;8.93;;;;;;;;;;5019613;28;20029;-70
2023/06/14 07:27:10;;;;;;;11.88;8.25;;;;;;;;;;5015161;28;20585;-70
2023/06/14 07:29:35;;;;;;;13.45;8.45;;;;;;;;;;5023121;28;20052;-70
2023/06/14 07:32:01;;;;;;;14.00;7.97;;;;;;;;;;5021881;28;20052;-70
2023/06/14 07:34:27;;;;;;;14.18;8.48;;;;;;;;;;5017403;28;20047;-70
2023/06/14 07:36:54;;;;;;;11.30;8.20;;;;;;;;;;5018420;28;20028;-70
2023/06/14 07:39:19;;;;;;;11.52;8.30;;;;;;;;;;5017152;28;20038;-70
2023/06/14 07:41:45;;;;;;;13.30;8.93;;;;;;;;;;5015879;28;20021;-70
2023/06/14 07:44:10;;;;;;;14.40;7.90;;;;;;;;;;5025849;28;20059;-70
2023/06/14 07:46:35;;;;;;;11.50;7.95;;;;;;;;;;5019012;28;20048;-71
2023/06/14 07:49:01;;;;;;;11.57;8.05;;;;;;;;;;5024817;28;20025;-70
2023/06/14 07:51:26;;;;;;;12.95;8.55;;;;;;;;;;5025913;28;20103;-71
2023/06/14 07:53:51;;;;;;;14.82;8.13;;;;;;;;;;5027021;28;20030;-70
2023/06/14 07:56:17;;;;;;;11.43;8.23;;;;;;;;;;5025434;28;20038;-71
2023/06/14 07:58:42;;;;;;;16.05;8.07;;;;;;;;;;5026662;28;20030;-70
2023/06/14 08:01:08;;;;;;;13.23;8.20;;;;;;;;;;5026600;28;20102;-70
2023/06/14 08:03:34;;;;;;;18.52;9.02;;;;;;;;;;5023914;28;20042;-70
2023/06/14 08:06:00;;;;;;;12.82;8.23;;;;;;;;;;5026178;28;20041;-70
2023/06/14 08:08:27;;;;;;;12.10;8.07;;;;;;;;;;5026272;28;20037;-70
2023/06/14 08:10:52;;;;;;;14.75;8.27;;;;;;;;;;5024286;28;20038;-70
2023/06/14 08:13:18;;;;;;;13.18;8.05;;;;;;;;;;5013069;28;20036;-70
2023/06/14 08:15:43;;;;;;;13.88;8.07;;;;;;;;;;5018425;28;20144;-70
2023/06/14 08:18:09;;;;;;;10.00;8.05;;;;;;;;;;5014249;28;20049;-71
2023/06/14 08:20:35;;;;;;;12.05;7.85;;;;;;;;;;5015780;28;20084;-71
2023/06/14 08:23:01;;;;;;;15.25;7.45;;;;;;;;;;5017161;28;20044;-71
2023/06/14 08:25:27;;;;;;;15.80;7.47;;;;;;;;;;5016453;28;20112;-70
2023/06/14 08:27:52;;;;;;;12.60;8.02;;;;;;;;;;5026975;28;20104;-71
2023/06/14 08:30:18;;;;;;;14.85;7.93;;;;;;;;;;5023498;28;20132;-71
2023/06/14 08:32:44;;;;;;;11.57;7.65;;;;;;;;;;5016121;28;20044;-71
2023/06/14 08:35:09;;;;;;;13.52;7.90;;;;;;;;;;5024056;28;20053;-71
2023/06/14 08:37:40;;;;;;;12.68;7.43;;;;;;;;;;5027490;28;20044;-70
2023/06/14 08:40:19;;;;;;;12.80;8.05;;;;;;;;;;5026600;28;20021;-71
2023/06/14 08:42:46;;;;;;;10.43;7.82;;;;;;;;;;5024694;28;20065;-71
2023/06/14 08:45:11;;;;;;;13.90;7.55;;;;;;;;;;5025110;28;20055;-71
2023/06/14 08:47:37;;;;;;;10.73;7.43;;;;;;;;;;5023790;28;20037;-71
2023/06/14 08:50:03;;;;;;;12.48;7.10;;;;;;;;;;5024866;28;20052;-71
2023/06/14 08:52:40;;;;;;;10.95;7.25;;;;;;;;;;5024858;28;20053;-71
2023/06/14 08:55:06;;;;;;;11.52;7.57;;;;;;;;;;5016731;28;20281;-70
2023/06/14 08:57:33;;;;;;;10.18;6.90;;;;;;;;;;5017751;28;20045;-71
2023/06/14 09:00:04;;;;;;;11.43;6.90;;;;;;;;;;5016567;28;20045;-71
2023/06/14 09:02:30;;;;;;;12.02;6.85;;;;;;;;;;5023947;28;20128;-71
2023/06/14 09:04:59;;;;;;;14.05;7.40;;;;;;;;;;5016701;28;20140;-70
2023/06/14 09:07:25;;;;;;;23.23;7.80;;;;;;;;;;5024851;28;20029;-72
2023/06/14 09:10:07;;;;;;;8.07;6.60;;;;;;;;;;5025509;28;20060;-71
2023/06/14 09:12:32;;;;;;;9.18;6.45;;;;;;;;;;5021928;28;20569;-71
2023/06/14 09:14:57;;;;;;;8.32;6.40;;;;;;;;;;5020176;28;20511;-71
2023/06/14 09:17:23;;;;;;;13.57;7.03;;;;;;;;;;5016710;28;20072;-70
2023/06/14 09:19:48;;;;;;;10.20;6.93;;;;;;;;;;5016506;28;20048;-70
2023/06/14 09:22:16;;;;;;;9.57;6.97;;;;;;;;;;5021892;28;20032;-71
2023/06/14 09:24:42;;;;;;;10.40;6.90;;;;;;;;;;5011508;28;20044;-71
2023/06/14 09:27:08;;;;;;;9.60;6.70;;;;;;;;;;5021375;28;20041;-70
2023/06/14 09:29:33;;;;;;;10.50;6.28;;;;;;;;;;5020971;28;20781;-71
2023/06/14 09:31:58;;;;;;;12.70;6.22;;;;;;;;;;5023376;28;20044;-71
2023/06/14 09:34:24;;;;;;;8.68;6.50;;;;;;;;;;5025282;28;20513;-70
2023/06/14 09:36:50;;;;;;;9.27;6.63;;;;;;;;;;5018965;28;20033;-71
2023/06/14 09:39:18;;;;;;;9.15;6.50;;;;;;;;;;5021848;28;20037;-71
2023/06/14 09:41:44;;;;;;;9.23;6.22;;;;;;;;;;5020922;28;20064;-70
2023/06/14 09:44:11;;;;;;;10.40;7.20;;;;;;;;;;5016512;28;20514;-70
2023/06/14 09:46:37;;;;;;;9.50;6.95;;;;;;;;;;5013772;28;20451;-70
2023/06/14 09:49:04;;;;;;;7.68;6.85;;;;;;;;;;5019564;28;20033;-70
2023/06/14 09:51:30;;;;;;;9.60;6.82;;;;;;;;;;5015117;28;20041;-70
2023/06/14 09:54:00;;;;;;;8.68;5.85;;;;;;;;;;5022116;28;20033;-70
2023/06/14 09:56:29;;;;;;;8.50;6.78;;;;;;;;;;5017956;28;20080;-70
2023/06/14 09:58:57;;;;;;;8.90;6.53;;;;;;;;;;5017684;28;20065;-71
2023/06/14 10:01:27;;;;;;;9.65;6.32;;;;;;;;;;5024900;28;20040;-70
2023/06/14 10:04:04;;;;;;;8.95;6.10;;;;;;;;;;5025044;28;20033;-70
2023/06/14 10:06:30;;;;;;;9.15;6.85;;;;;;;;;;5019477;28;20052;-70
2023/06/14 10:08:59;;;;;;;8.45;7.03;;;;;;;;;;5013846;28;20038;-71
2023/06/14 10:11:28;;;;;;;10.05;7.15;;;;;;;;;;5016719;28;20590;-71
2023/06/14 10:13:58;;;;;;;8.27;7.00;;;;;;;;;;5019579;28;20037;-71
2023/06/14 10:16:32;;;;;;;10.00;7.28;;;;;;;;;;5022417;28;20060;-71
2023/06/14 10:19:06;;;;;;;8.73;6.57;;;;;;;;;;5024778;28;20159;-71
2023/06/14 10:21:57;;;;;;;9.65;7.05;;;;;;;;;;5009893;28;20069;-71
2023/06/14 10:24:32;;;;;;;9.18;6.97;;;;;;;;;;5011047;28;20046;-70
2023/06/14 10:26:59;;;;;;;14.15;6.95;;;;;;;;;;5010574;28;20113;-70
2023/06/14 10:29:25;;;;;;;8.80;6.57;;;;;;;;;;5012437;28;20061;-71
2023/06/14 10:31:56;;;;;;;8.38;6.68;;;;;;;;;;5020440;28;20559;-71
2023/06/14 10:34:25;;;;;;;10.30;6.80;;;;;;;;;;5010665;28;20053;-71
2023/06/14 10:37:03;;;;;;;7.78;6.43;;;;;;;;;;5022484;28;20429;-71
2023/06/14 10:39:30;;;;;;;8.50;6.57;;;;;;;;;;5022645;28;20042;-71
2023/06/14 10:41:57;;;;;;;8.48;6.80;;;;;;;;;;5015699;28;20049;-71
2023/06/14 10:44:22;;;;;;;8.98;6.82;;;;;;;;;;5021757;28;20041;-71
2023/06/14 10:46:48;;;;;;;8.93;6.63;;;;;;;;;;5023454;28;20039;-71
2023/06/14 10:49:20;;;;;;;9.23;6.93;;;;;;;;;;5017685;28;20120;-71
2023/06/14 10:51:51;;;;;;;9.63;6.80;;;;;;;;;;5011897;28;20048;-71
2023/06/14 10:54:17;;;;;;;8.73;7.03;;;;;;;;;;5013441;28;20179;-71
2023/06/14 10:56:50;;;;;;;8.77;6.80;;;;;;;;;;5015266;28;20124;-71
2023/06/14 10:59:17;;;;;;;9.85;7.45;;;;;;;;;;5014588;28;20034;-71
2023/06/14 11:02:19;;;;;;;10.68;6.88;;;;;;;;;;5014761;28;20029;-71
2023/06/14 11:04:53;;;;;;;8.55;7.00;;;;;;;;;;5023284;28;20041;-71
2023/06/14 11:07:49;;;;;;;11.43;7.20;;;;;;;;;;5019084;28;20061;-70
2023/06/14 11:10:25;;;;;;;9.48;6.90;;;;;;;;;;5009038;28;20473;-71
2023/06/14 11:12:54;;;;;;;9.18;6.90;;;;;;;;;;5018821;28;20458;-71
2023/06/14 11:15:19;;;;;;;13.38;6.95;;;;;;;;;;5023538;28;20041;-71
2023/06/14 11:17:53;;;;;;;10.40;7.30;;;;;;;;;;5023504;28;20422;-71
2023/06/14 11:20:18;;;;;;;11.13;7.10;;;;;;;;;;5017228;28;20037;-70
2023/06/14 11:22:44;;;;;;;8.43;7.10;;;;;;;;;;5012626;28;20157;-71
2023/06/14 11:25:11;;;;;;;9.00;7.07;;;;;;;;;;5018317;28;20487;-71
2023/06/14 11:27:36;;;;;;;10.45;6.97;;;;;;;;;;5017068;28;20037;-70
2023/06/14 11:30:02;;;;;;;10.70;6.70;;;;;;;;;;5031000;28;20106;-71
2023/06/14 11:32:27;;;;;;;12.05;7.75;;;;;;;;;;5034024;28;20117;-71
2023/06/14 11:34:53;;;;;;;12.32;6.93;;;;;;;;;;5025286;28;20055;-71
2023/06/14 11:37:19;;;;;;;8.75;7.40;;;;;;;;;;5018241;28;20120;-71
2023/06/14 11:39:45;;;;;;;9.25;7.07;;;;;;;;;;5023229;28;20032;-71
2023/06/14 11:42:15;;;;;;;13.95;6.95;;;;;;;;;;5023543;28;20049;-71
2023/06/14 11:44:41;;;;;;;7.63;6.72;;;;;;;;;;5022588;28;20056;-70
2023/06/14 11:47:06;;;;;;;8.70;6.70;;;;;;;;;;5009774;28;20444;-71
2023/06/14 11:49:36;;;;;;;7.70;6.90;;;;;;;;;;5023212;28;20037;-71
2023/06/14 11:52:01;;;;;;;9.00;7.10;;;;;;;;;;5025100;28;20025;-71
2023/06/14 11:54:27;;;;;;;9.93;7.22;;;;;;;;;;5027066;28;20044;-71
2023/06/14 11:56:52;;;;;;;10.45;7.32;;;;;;;;;;5025889;28;20034;-71
2023/06/14 11:59:18;;;;;;;9.63;6.90;;;;;;;;;;5026945;28;20037;-71
2023/06/14 12:01:43;;;;;;;9.30;7.53;;;;;;;;;;5026850;28;20063;-71
2023/06/14 12:04:09;;;;;;;10.23;7.22;;;;;;;;;;5022833;28;20037;-71
2023/06/14 12:06:39;;;;;;;9.95;7.82;;;;;;;;;;5016356;28;20091;-71
2023/06/14 12:09:06;;;;;;;10.73;7.25;;;;;;;;;;5022525;28;20033;-71
2023/06/14 12:11:34;;;;;;;10.13;7.05;;;;;;;;;;5022355;28;20041;-71
2023/06/14 12:14:00;;;;;;;10.57;6.78;;;;;;;;;;5024578;28;20040;-71
2023/06/14 12:16:32;;;;;;;7.82;6.80;;;;;;;;;;5019858;28;20040;-71
2023/06/14 12:19:00;;;;;;;10.23;7.55;;;;;;;;;;5023492;28;20026;-71
2023/06/14 12:21:27;;;;;;;10.07;7.45;;;;;;;;;;5024820;28;20040;-71
2023/06/14 12:23:53;;;;;;;11.85;7.95;;;;;;;;;;5025458;28;20128;-70
2023/06/14 12:26:19;;;;;;;9.32;7.45;;;;;;;;;;5017369;28;20649;-71
2023/06/14 12:28:46;;;;;;;11.52;7.32;;;;;;;;;;5015007;28;20045;-71
2023/06/14 12:31:13;;;;;;;12.02;7.50;;;;;;;;;;5018270;28;20041;-71
2023/06/14 12:33:42;;;;;;;9.88;7.03;;;;;;;;;;5016188;28;20128;-71
2023/06/14 12:36:08;;;;;;;10.07;7.72;;;;;;;;;;5017790;28;20944;-71
2023/06/14 12:38:34;;;;;;;9.40;6.75;;;;;;;;;;5016702;28;20108;-71
2023/06/14 12:41:00;;;;;;;10.35;7.07;;;;;;;;;;5020876;28;20242;-71
2023/06/14 12:43:26;;;;;;;13.02;6.90;;;;;;;;;;5023757;28;20026;-71
2023/06/14 12:45:51;;;;;;;9.63;7.13;;;;;;;;;;5023234;28;20036;-70
2023/06/14 12:48:17;;;;;;;9.40;7.10;;;;;;;;;;5015541;28;20038;-71
2023/06/14 12:50:42;;;;;;;8.25;6.68;;;;;;;;;;5018388;28;20030;-71
2023/06/14 12:53:08;;;;;;;11.02;7.55;;;;;;;;;;5021081;28;20047;-71
2023/06/14 12:55:33;;;;;;;9.48;6.95;;;;;;;;;;5019122;28;20037;-71
2023/06/14 12:57:58;;;;;;;8.95;7.18;;;;;;;;;;5026005;28;20079;-71
2023/06/14 13:00:25;;;;;;;9.93;7.20;;;;;;;;;;5028624;28;20042;-71
2023/06/14 13:02:51;;;;;;;11.45;7.25;;;;;;;;;;5024809;28;20469;-71
2023/06/14 13:05:17;;;;;;;7.90;6.68;;;;;;;;;;5022162;28;20710;-71
2023/06/14 13:07:42;;;;;;;11.60;7.32;;;;;;;;;;5016885;28;20033;-71
2023/06/14 13:10:08;;;;;;;9.48;6.90;;;;;;;;;;5016907;28;20033;-71
2023/06/14 13:12:33;;;;;;;10.63;7.15;;;;;;;;;;5017070;28;20076;-71
2023/06/14 13:14:58;;;;;;;8.23;6.57;;;;;;;;;;5015975;28;20037;-71
2023/06/14 13:17:24;;;;;;;8.27;6.43;;;;;;;;;;5010002;28;20100;-71
2023/06/14 13:19:49;;;;;;;9.13;6.93;;;;;;;;;;5024805;28;20026;-71
2023/06/14 13:22:15;;;;;;;10.60;7.00;;;;;;;;;;5025293;28;20079;-71
2023/06/14 13:24:40;;;;;;;8.98;6.93;;;;;;;;;;5021972;28;20045;-71
2023/06/14 13:27:06;;;;;;;7.38;6.57;;;;;;;;;;5017335;28;20387;-71
2023/06/14 13:29:33;;;;;;;10.18;6.45;;;;;;;;;;5024762;28;20079;-71
2023/06/14 13:31:58;;;;;;;7.45;6.18;;;;;;;;;;5024921;28;20026;-71
2023/06/14 13:34:24;;;;;;;7.10;6.13;;;;;;;;;;5015729;28;20033;-71
2023/06/14 13:36:49;;;;;;;13.57;7.10;;;;;;;;;;5013886;28;20029;-71
2023/06/14 13:39:15;;;;;;;9.57;6.38;;;;;;;;;;5021135;28;20045;-71
2023/06/14 13:41:40;;;;;;;6.78;6.07;;;;;;;;;;5015812;28;20068;-71
2023/06/14 13:44:06;;;;;;;7.15;5.95;;;;;;;;;;5020147;28;20128;-71
2023/06/14 13:46:31;;;;;;;8.55;6.50;;;;;;;;;;5014982;28;20467;-71
2023/06/14 13:48:57;;;;;;;7.35;6.07;;;;;;;;;;5015079;28;20097;-71
2023/06/14 13:51:23;;;;;;;7.88;6.28;;;;;;;;;;5020013;28;20068;-71
2023/06/14 13:53:49;;;;;;;9.20;6.55;;;;;;;;;;5024013;28;20042;-71
2023/06/14 13:56:15;;;;;;;6.55;5.90;;;;;;;;;;5017860;28;20042;-71
2023/06/14 13:58:41;;;;;;;10.75;6.13;;;;;;;;;;5018412;28;20048;-71
2023/06/14 14:01:07;;;;;;;8.48;6.00;;;;;;;;;;5024156;28;20022;-72
2023/06/14 14:03:32;;;;;;;7.03;5.90;;;;;;;;;;5019926;28;20056;-72
2023/06/14 14:05:58;;;;;;;8.02;6.20;;;;;;;;;;5020719;28;20038;-72
2023/06/14 14:08:23;;;;;;;8.15;5.97;;;;;;;;;;5010471;28;20112;-71
2023/06/14 14:10:48;;;;;;;8.02;5.75;;;;;;;;;;5018505;28;20029;-72
2023/06/14 14:13:14;;;;;;;9.45;6.00;;;;;;;;;;5023022;28;20017;-72
2023/06/14 14:15:39;;;;;;;6.60;5.95;;;;;;;;;;5022125;28;20667;-72
2023/06/14 14:18:05;;;;;;;7.68;5.97;;;;;;;;;;5023691;28;20510;-72
2023/06/14 14:20:31;;;;;;;8.63;6.03;;;;;;;;;;5024790;28;20095;-72
2023/06/14 14:22:56;;;;;;;8.07;6.10;;;;;;;;;;5023786;28;20168;-72
2023/06/14 14:25:22;;;;;;;9.98;6.18;;;;;;;;;;5029204;28;20045;-71
2023/06/14 14:27:47;;;;;;;6.93;6.18;;;;;;;;;;5037912;28;20017;-72
2023/06/14 14:30:14;;;;;;;6.97;5.70;;;;;;;;;;5027204;28;20099;-72